Terminal Aerodrome Forecast
Issued by NWS

Home | Current Version | Previous Version | Text Only | Print | Product List | Glossary Off
Versions: 1 2 3 4 5 6 7 8 9 10 11 12 13 14 15 16 17 18 19 20

309
FTUS44 KTSA 302330
TAFFYV
TAF
KFYV 302330Z 0100/0124 29005KT P6SM BKN035
     FM010800 00000KT 3SM BR SCT005
      TEMPO 0109/0113 1SM BR BKN005
     FM011400 29007KT P6SM SCT250=

USA.gov is the U.S. government's official web portal to all federal, state and local government web resources and services.